sensor_id;sensor_type;location;lat;lon;timestamp;P1;durP1;ratioP1;P2;durP2;ratioP2
14052;SDS011;7101;51.600;7.310;2022-12-07T00:01:48;13.93;;;12.20;;
14052;SDS011;7101;51.600;7.310;2022-12-07T00:04:16;15.13;;;11.95;;
14052;SDS011;7101;51.600;7.310;2022-12-07T00:06:44;13.52;;;12.05;;
14052;SDS011;7101;51.600;7.310;2022-12-07T00:09:13;13.48;;;11.45;;
14052;SDS011;7101;51.600;7.310;2022-12-07T00:11:41;13.40;;;11.32;;
14052;SDS011;7101;51.600;7.310;2022-12-07T00:14:12;16.25;;;11.77;;
14052;SDS011;7101;51.600;7.310;2022-12-07T00:16:40;13.73;;;11.32;;
14052;SDS011;7101;51.600;7.310;2022-12-07T00:19:08;15.23;;;11.73;;
14052;SDS011;7101;51.600;7.310;2022-12-07T00:21:38;15.75;;;11.93;;
14052;SDS011;7101;51.600;7.310;2022-12-07T00:24:05;14.18;;;11.65;;
14052;SDS011;7101;51.600;7.310;2022-12-07T00:26:33;14.80;;;12.15;;
14052;SDS011;7101;51.600;7.310;2022-12-07T00:29:02;16.85;;;12.15;;
14052;SDS011;7101;51.600;7.310;2022-12-07T00:31:32;16.17;;;12.40;;
14052;SDS011;7101;51.600;7.310;2022-12-07T00:34:03;16.52;;;12.40;;
14052;SDS011;7101;51.600;7.310;2022-12-07T00:36:31;15.40;;;12.82;;
14052;SDS011;7101;51.600;7.310;2022-12-07T00:38:58;19.88;;;13.35;;
14052;SDS011;7101;51.600;7.310;2022-12-07T00:41:33;17.67;;;13.38;;
14052;SDS011;7101;51.600;7.310;2022-12-07T00:44:01;14.60;;;12.95;;
14052;SDS011;7101;51.600;7.310;2022-12-07T00:46:27;18.10;;;13.95;;
14052;SDS011;7101;51.600;7.310;2022-12-07T00:48:56;19.13;;;13.82;;
14052;SDS011;7101;51.600;7.310;2022-12-07T00:51:24;17.30;;;13.57;;
14052;SDS011;7101;51.600;7.310;2022-12-07T00:53:57;17.52;;;14.38;;
14052;SDS011;7101;51.600;7.310;2022-12-07T00:56:25;17.95;;;13.57;;
14052;SDS011;7101;51.600;7.310;2022-12-07T00:58:54;17.48;;;13.55;;
14052;SDS011;7101;51.600;7.310;2022-12-07T01:01:23;15.68;;;13.75;;
14052;SDS011;7101;51.600;7.310;2022-12-07T01:03:52;16.98;;;13.98;;
14052;SDS011;7101;51.600;7.310;2022-12-07T01:06:22;20.73;;;14.18;;
14052;SDS011;7101;51.600;7.310;2022-12-07T01:08:50;19.17;;;14.15;;
14052;SDS011;7101;51.600;7.310;2022-12-07T01:11:18;18.20;;;14.15;;
14052;SDS011;7101;51.600;7.310;2022-12-07T01:13:46;21.33;;;14.32;;
14052;SDS011;7101;51.600;7.310;2022-12-07T01:16:16;15.73;;;14.02;;
14052;SDS011;7101;51.600;7.310;2022-12-07T01:18:45;16.48;;;14.05;;
14052;SDS011;7101;51.600;7.310;2022-12-07T01:21:15;18.92;;;14.13;;
14052;SDS011;7101;51.600;7.310;2022-12-07T01:23:45;17.75;;;14.27;;
14052;SDS011;7101;51.600;7.310;2022-12-07T01:26:12;17.30;;;14.20;;
14052;SDS011;7101;51.600;7.310;2022-12-07T01:28:40;17.75;;;13.82;;
14052;SDS011;7101;51.600;7.310;2022-12-07T01:31:08;24.80;;;14.93;;
14052;SDS011;7101;51.600;7.310;2022-12-07T01:33:37;17.85;;;14.70;;
14052;SDS011;7101;51.600;7.310;2022-12-07T01:36:05;18.48;;;13.93;;
14052;SDS011;7101;51.600;7.310;2022-12-07T01:38:34;21.92;;;14.93;;
14052;SDS011;7101;51.600;7.310;2022-12-07T01:41:02;22.30;;;14.88;;
14052;SDS011;7101;51.600;7.310;2022-12-07T01:43:30;18.40;;;14.82;;
14052;SDS011;7101;51.600;7.310;2022-12-07T01:46:00;19.60;;;14.02;;
14052;SDS011;7101;51.600;7.310;2022-12-07T01:48:28;18.95;;;14.77;;
14052;SDS011;7101;51.600;7.310;2022-12-07T01:51:00;18.35;;;13.98;;
14052;SDS011;7101;51.600;7.310;2022-12-07T01:53:30;18.88;;;15.25;;
14052;SDS011;7101;51.600;7.310;2022-12-07T01:56:03;17.48;;;13.68;;
14052;SDS011;7101;51.600;7.310;2022-12-07T01:58:31;20.00;;;15.30;;
14052;SDS011;7101;51.600;7.310;2022-12-07T02:00:58;19.85;;;15.20;;
14052;SDS011;7101;51.600;7.310;2022-12-07T02:03:27;17.95;;;14.40;;
14052;SDS011;7101;51.600;7.310;2022-12-07T02:05:58;17.55;;;13.93;;
14052;SDS011;7101;51.600;7.310;2022-12-07T02:08:25;16.70;;;14.18;;
14052;SDS011;7101;51.600;7.310;2022-12-07T02:10:53;16.17;;;13.60;;
14052;SDS011;7101;51.600;7.310;2022-12-07T02:13:24;17.90;;;14.23;;
14052;SDS011;7101;51.600;7.310;2022-12-07T02:15:59;18.13;;;13.55;;
14052;SDS011;7101;51.600;7.310;2022-12-07T02:18:38;15.15;;;13.32;;
14052;SDS011;7101;51.600;7.310;2022-12-07T02:21:15;16.67;;;12.90;;
14052;SDS011;7101;51.600;7.310;2022-12-07T02:23:54;16.58;;;13.60;;
14052;SDS011;7101;51.600;7.310;2022-12-07T02:26:48;16.83;;;13.10;;
14052;SDS011;7101;51.600;7.310;2022-12-07T02:29:44;17.00;;;13.63;;
14052;SDS011;7101;51.600;7.310;2022-12-07T02:32:16;18.60;;;13.50;;
14052;SDS011;7101;51.600;7.310;2022-12-07T02:34:48;15.43;;;13.32;;
14052;SDS011;7101;51.600;7.310;2022-12-07T02:37:19;15.13;;;12.85;;
14052;SDS011;7101;51.600;7.310;2022-12-07T02:39:55;17.67;;;13.23;;
14052;SDS011;7101;51.600;7.310;2022-12-07T02:42:28;17.67;;;13.75;;
14052;SDS011;7101;51.600;7.310;2022-12-07T02:45:03;19.65;;;13.57;;
14052;SDS011;7101;51.600;7.310;2022-12-07T02:47:33;20.08;;;13.68;;
14052;SDS011;7101;51.600;7.310;2022-12-07T02:50:02;18.30;;;13.43;;
14052;SDS011;7101;51.600;7.310;2022-12-07T02:52:30;23.95;;;14.50;;
14052;SDS011;7101;51.600;7.310;2022-12-07T02:54:57;21.52;;;14.43;;
14052;SDS011;7101;51.600;7.310;2022-12-07T02:57:31;18.40;;;14.63;;
14052;SDS011;7101;51.600;7.310;2022-12-07T03:00:14;18.52;;;14.63;;
14052;SDS011;7101;51.600;7.310;2022-12-07T03:02:46;19.15;;;14.30;;
14052;SDS011;7101;51.600;7.310;2022-12-07T03:05:27;20.33;;;13.95;;
14052;SDS011;7101;51.600;7.310;2022-12-07T03:08:19;18.48;;;14.25;;
14052;SDS011;7101;51.600;7.310;2022-12-07T03:10:54;20.27;;;14.98;;
14052;SDS011;7101;51.600;7.310;2022-12-07T03:13:25;23.50;;;15.48;;
14052;SDS011;7101;51.600;7.310;2022-12-07T03:16:00;20.27;;;15.02;;
14052;SDS011;7101;51.600;7.310;2022-12-07T03:18:32;17.65;;;14.88;;
14052;SDS011;7101;51.600;7.310;2022-12-07T03:21:05;19.83;;;15.15;;
14052;SDS011;7101;51.600;7.310;2022-12-07T03:23:39;20.40;;;14.57;;
14052;SDS011;7101;51.600;7.310;2022-12-07T03:26:09;20.73;;;14.43;;
14052;SDS011;7101;51.600;7.310;2022-12-07T03:28:42;19.30;;;13.98;;
14052;SDS011;7101;51.600;7.310;2022-12-07T03:31:17;20.67;;;14.90;;
14052;SDS011;7101;51.600;7.310;2022-12-07T03:33:48;21.98;;;15.65;;
14052;SDS011;7101;51.600;7.310;2022-12-07T03:36:20;22.17;;;15.70;;
14052;SDS011;7101;51.600;7.310;2022-12-07T03:38:53;19.45;;;15.27;;
14052;SDS011;7101;51.600;7.310;2022-12-07T03:41:27;23.45;;;15.98;;
14052;SDS011;7101;51.600;7.310;2022-12-07T03:43:56;23.23;;;16.33;;
14052;SDS011;7101;51.600;7.310;2022-12-07T03:46:27;22.30;;;15.98;;
14052;SDS011;7101;51.600;7.310;2022-12-07T03:49:03;23.70;;;16.30;;
14052;SDS011;7101;51.600;7.310;2022-12-07T03:51:38;21.25;;;15.13;;
14052;SDS011;7101;51.600;7.310;2022-12-07T03:54:10;21.92;;;15.25;;
14052;SDS011;7101;51.600;7.310;2022-12-07T03:56:42;25.30;;;16.92;;
14052;SDS011;7101;51.600;7.310;2022-12-07T03:59:10;24.58;;;16.13;;
14052;SDS011;7101;51.600;7.310;2022-12-07T04:01:42;23.13;;;16.20;;
14052;SDS011;7101;51.600;7.310;2022-12-07T04:04:09;24.25;;;16.52;;
14052;SDS011;7101;51.600;7.310;2022-12-07T04:06:36;24.80;;;16.35;;
14052;SDS011;7101;51.600;7.310;2022-12-07T04:09:03;20.73;;;15.18;;
14052;SDS011;7101;51.600;7.310;2022-12-07T04:11:30;19.25;;;15.98;;
14052;SDS011;7101;51.600;7.310;2022-12-07T04:13:57;23.80;;;15.75;;
14052;SDS011;7101;51.600;7.310;2022-12-07T04:16:44;22.65;;;15.32;;
14052;SDS011;7101;51.600;7.310;2022-12-07T04:19:11;22.13;;;14.60;;
14052;SDS011;7101;51.600;7.310;2022-12-07T04:21:38;21.48;;;15.13;;
14052;SDS011;7101;51.600;7.310;2022-12-07T04:24:05;22.30;;;14.98;;
14052;SDS011;7101;51.600;7.310;2022-12-07T04:26:32;22.42;;;14.88;;
14052;SDS011;7101;51.600;7.310;2022-12-07T04:28:59;20.60;;;15.05;;
14052;SDS011;7101;51.600;7.310;2022-12-07T04:31:26;24.60;;;15.35;;
14052;SDS011;7101;51.600;7.310;2022-12-07T04:33:54;21.55;;;14.43;;
14052;SDS011;7101;51.600;7.310;2022-12-07T04:36:21;20.10;;;15.10;;
14052;SDS011;7101;51.600;7.310;2022-12-07T04:38:49;21.73;;;15.10;;
14052;SDS011;7101;51.600;7.310;2022-12-07T04:41:16;22.50;;;14.55;;
14052;SDS011;7101;51.600;7.310;2022-12-07T04:43:43;24.52;;;15.77;;
14052;SDS011;7101;51.600;7.310;2022-12-07T04:46:11;19.73;;;15.25;;
14052;SDS011;7101;51.600;7.310;2022-12-07T04:48:38;18.50;;;14.05;;
14052;SDS011;7101;51.600;7.310;2022-12-07T04:51:06;21.88;;;14.55;;
14052;SDS011;7101;51.600;7.310;2022-12-07T04:53:33;23.50;;;14.68;;
14052;SDS011;7101;51.600;7.310;2022-12-07T04:56:00;21.58;;;14.85;;
14052;SDS011;7101;51.600;7.310;2022-12-07T04:58:27;22.67;;;13.90;;
14052;SDS011;7101;51.600;7.310;2022-12-07T05:00:54;24.05;;;14.27;;
14052;SDS011;7101;51.600;7.310;2022-12-07T05:03:21;21.83;;;14.07;;
14052;SDS011;7101;51.600;7.310;2022-12-07T05:05:48;18.70;;;14.27;;
14052;SDS011;7101;51.600;7.310;2022-12-07T05:08:17;18.48;;;13.77;;
14052;SDS011;7101;51.600;7.310;2022-12-07T05:10:44;19.33;;;14.55;;
14052;SDS011;7101;51.600;7.310;2022-12-07T05:13:11;19.63;;;14.02;;
14052;SDS011;7101;51.600;7.310;2022-12-07T05:15:41;20.08;;;14.13;;
14052;SDS011;7101;51.600;7.310;2022-12-07T05:18:09;17.50;;;13.73;;
14052;SDS011;7101;51.600;7.310;2022-12-07T05:20:37;18.48;;;13.48;;
14052;SDS011;7101;51.600;7.310;2022-12-07T05:23:04;18.52;;;14.15;;
14052;SDS011;7101;51.600;7.310;2022-12-07T05:25:32;18.63;;;13.15;;
14052;SDS011;7101;51.600;7.310;2022-12-07T05:27:59;21.58;;;13.88;;
14052;SDS011;7101;51.600;7.310;2022-12-07T05:30:26;22.65;;;13.43;;
14052;SDS011;7101;51.600;7.310;2022-12-07T05:32:53;19.38;;;13.07;;
14052;SDS011;7101;51.600;7.310;2022-12-07T05:35:21;20.65;;;13.43;;
14052;SDS011;7101;51.600;7.310;2022-12-07T05:37:48;19.95;;;13.32;;
14052;SDS011;7101;51.600;7.310;2022-12-07T05:40:15;21.80;;;13.98;;
14052;SDS011;7101;51.600;7.310;2022-12-07T05:42:45;18.20;;;12.85;;
14052;SDS011;7101;51.600;7.310;2022-12-07T05:45:12;22.52;;;13.60;;
14052;SDS011;7101;51.600;7.310;2022-12-07T05:47:39;18.70;;;13.05;;
14052;SDS011;7101;51.600;7.310;2022-12-07T05:50:06;22.77;;;13.98;;
14052;SDS011;7101;51.600;7.310;2022-12-07T05:52:33;21.15;;;12.75;;
14052;SDS011;7101;51.600;7.310;2022-12-07T05:55:00;19.15;;;12.93;;
14052;SDS011;7101;51.600;7.310;2022-12-07T05:57:27;18.75;;;12.90;;
14052;SDS011;7101;51.600;7.310;2022-12-07T05:59:55;21.05;;;11.98;;
14052;SDS011;7101;51.600;7.310;2022-12-07T06:02:21;19.13;;;12.65;;
14052;SDS011;7101;51.600;7.310;2022-12-07T06:04:49;14.93;;;11.77;;
14052;SDS011;7101;51.600;7.310;2022-12-07T06:07:16;21.25;;;13.25;;
14052;SDS011;7101;51.600;7.310;2022-12-07T06:09:43;21.00;;;13.50;;
14052;SDS011;7101;51.600;7.310;2022-12-07T06:12:10;24.83;;;17.92;;
14052;SDS011;7101;51.600;7.310;2022-12-07T06:14:57;20.23;;;13.48;;
14052;SDS011;7101;51.600;7.310;2022-12-07T06:17:23;27.38;;;15.13;;
14052;SDS011;7101;51.600;7.310;2022-12-07T06:19:50;23.35;;;14.80;;
14052;SDS011;7101;51.600;7.310;2022-12-07T06:22:17;24.60;;;14.77;;
14052;SDS011;7101;51.600;7.310;2022-12-07T06:24:45;20.48;;;14.20;;
14052;SDS011;7101;51.600;7.310;2022-12-07T06:27:12;60.13;;;33.28;;
14052;SDS011;7101;51.600;7.310;2022-12-07T06:29:39;29.08;;;19.10;;
14052;SDS011;7101;51.600;7.310;2022-12-07T06:32:07;27.25;;;16.98;;
14052;SDS011;7101;51.600;7.310;2022-12-07T06:34:34;48.30;;;26.08;;
14052;SDS011;7101;51.600;7.310;2022-12-07T06:37:03;74.30;;;36.85;;
14052;SDS011;7101;51.600;7.310;2022-12-07T06:39:30;57.05;;;29.85;;
14052;SDS011;7101;51.600;7.310;2022-12-07T06:41:57;42.72;;;24.20;;
14052;SDS011;7101;51.600;7.310;2022-12-07T06:44:24;129.05;;;58.42;;
14052;SDS011;7101;51.600;7.310;2022-12-07T06:46:51;112.13;;;61.35;;
14052;SDS011;7101;51.600;7.310;2022-12-07T06:49:19;21.77;;;15.55;;
14052;SDS011;7101;51.600;7.310;2022-12-07T06:51:46;22.13;;;13.40;;
14052;SDS011;7101;51.600;7.310;2022-12-07T06:54:15;19.33;;;13.00;;
14052;SDS011;7101;51.600;7.310;2022-12-07T06:56:44;20.50;;;13.00;;
14052;SDS011;7101;51.600;7.310;2022-12-07T06:59:12;18.23;;;12.27;;
14052;SDS011;7101;51.600;7.310;2022-12-07T07:01:39;21.80;;;11.93;;
14052;SDS011;7101;51.600;7.310;2022-12-07T07:04:06;19.30;;;12.73;;
14052;SDS011;7101;51.600;7.310;2022-12-07T07:06:34;19.67;;;11.98;;
14052;SDS011;7101;51.600;7.310;2022-12-07T07:09:01;21.25;;;12.18;;
14052;SDS011;7101;51.600;7.310;2022-12-07T07:11:29;20.73;;;11.85;;
14052;SDS011;7101;51.600;7.310;2022-12-07T07:14:01;19.35;;;12.02;;
14052;SDS011;7101;51.600;7.310;2022-12-07T07:16:28;19.65;;;12.57;;
14052;SDS011;7101;51.600;7.310;2022-12-07T07:18:56;21.20;;;12.30;;
14052;SDS011;7101;51.600;7.310;2022-12-07T07:21:24;20.77;;;11.85;;
14052;SDS011;7101;51.600;7.310;2022-12-07T07:23:53;20.85;;;12.73;;
14052;SDS011;7101;51.600;7.310;2022-12-07T07:26:21;19.80;;;12.43;;
14052;SDS011;7101;51.600;7.310;2022-12-07T07:28:48;22.63;;;12.75;;
14052;SDS011;7101;51.600;7.310;2022-12-07T07:31:15;21.25;;;12.70;;
14052;SDS011;7101;51.600;7.310;2022-12-07T07:33:41;17.80;;;12.77;;
14052;SDS011;7101;51.600;7.310;2022-12-07T07:36:09;19.65;;;13.52;;
14052;SDS011;7101;51.600;7.310;2022-12-07T07:38:38;20.23;;;12.82;;
14052;SDS011;7101;51.600;7.310;2022-12-07T07:41:07;16.40;;;12.85;;
14052;SDS011;7101;51.600;7.310;2022-12-07T07:43:35;20.88;;;13.00;;
14052;SDS011;7101;51.600;7.310;2022-12-07T07:46:03;22.10;;;14.00;;
14052;SDS011;7101;51.600;7.310;2022-12-07T07:48:30;20.10;;;12.88;;
14052;SDS011;7101;51.600;7.310;2022-12-07T07:50:57;21.27;;;13.45;;
14052;SDS011;7101;51.600;7.310;2022-12-07T07:53:24;25.63;;;14.93;;
14052;SDS011;7101;51.600;7.310;2022-12-07T07:55:51;19.35;;;14.40;;
14052;SDS011;7101;51.600;7.310;2022-12-07T07:58:20;20.17;;;13.55;;
14052;SDS011;7101;51.600;7.310;2022-12-07T08:00:46;29.85;;;14.85;;
14052;SDS011;7101;51.600;7.310;2022-12-07T08:03:13;21.10;;;13.88;;
14052;SDS011;7101;51.600;7.310;2022-12-07T08:05:40;26.75;;;13.55;;
14052;SDS011;7101;51.600;7.310;2022-12-07T08:08:07;20.95;;;13.27;;
14052;SDS011;7101;51.600;7.310;2022-12-07T08:10:34;21.77;;;13.98;;
14052;SDS011;7101;51.600;7.310;2022-12-07T08:13:02;22.38;;;13.52;;
14052;SDS011;7101;51.600;7.310;2022-12-07T08:15:40;23.02;;;13.73;;
14052;SDS011;7101;51.600;7.310;2022-12-07T08:18:08;23.17;;;13.93;;
14052;SDS011;7101;51.600;7.310;2022-12-07T08:20:35;19.58;;;13.73;;
14052;SDS011;7101;51.600;7.310;2022-12-07T08:23:03;23.33;;;14.32;;
14052;SDS011;7101;51.600;7.310;2022-12-07T08:25:30;21.30;;;13.02;;
14052;SDS011;7101;51.600;7.310;2022-12-07T08:27:58;20.83;;;12.95;;
14052;SDS011;7101;51.600;7.310;2022-12-07T08:30:26;21.73;;;13.55;;
14052;SDS011;7101;51.600;7.310;2022-12-07T08:32:55;19.40;;;12.43;;
14052;SDS011;7101;51.600;7.310;2022-12-07T08:35:21;22.92;;;12.93;;
14052;SDS011;7101;51.600;7.310;2022-12-07T08:37:48;13.80;;;10.90;;
14052;SDS011;7101;51.600;7.310;2022-12-07T08:40:15;18.50;;;11.40;;
14052;SDS011;7101;51.600;7.310;2022-12-07T08:42:44;15.13;;;10.63;;
14052;SDS011;7101;51.600;7.310;2022-12-07T08:45:14;21.35;;;11.50;;
14052;SDS011;7101;51.600;7.310;2022-12-07T08:47:43;18.48;;;10.50;;
14052;SDS011;7101;51.600;7.310;2022-12-07T08:50:15;18.35;;;10.63;;
14052;SDS011;7101;51.600;7.310;2022-12-07T08:52:43;16.13;;;10.95;;
14052;SDS011;7101;51.600;7.310;2022-12-07T08:55:10;17.75;;;10.32;;
14052;SDS011;7101;51.600;7.310;2022-12-07T08:57:38;18.30;;;9.93;;
14052;SDS011;7101;51.600;7.310;2022-12-07T09:00:09;15.20;;;10.15;;
14052;SDS011;7101;51.600;7.310;2022-12-07T09:02:38;20.15;;;9.65;;
14052;SDS011;7101;51.600;7.310;2022-12-07T09:05:06;14.38;;;9.18;;
14052;SDS011;7101;51.600;7.310;2022-12-07T09:07:35;16.88;;;9.82;;
14052;SDS011;7101;51.600;7.310;2022-12-07T09:10:03;16.75;;;9.40;;
14052;SDS011;7101;51.600;7.310;2022-12-07T09:12:31;20.98;;;9.88;;
14052;SDS011;7101;51.600;7.310;2022-12-07T09:14:58;12.77;;;8.85;;
14052;SDS011;7101;51.600;7.310;2022-12-07T09:17:26;15.27;;;8.85;;
14052;SDS011;7101;51.600;7.310;2022-12-07T09:19:53;18.23;;;9.18;;
14052;SDS011;7101;51.600;7.310;2022-12-07T09:22:20;15.27;;;8.95;;
14052;SDS011;7101;51.600;7.310;2022-12-07T09:24:49;18.83;;;8.75;;
14052;SDS011;7101;51.600;7.310;2022-12-07T09:27:16;16.25;;;9.07;;
14052;SDS011;7101;51.600;7.310;2022-12-07T09:29:43;14.77;;;8.68;;
14052;SDS011;7101;51.600;7.310;2022-12-07T09:32:10;11.60;;;7.53;;
14052;SDS011;7101;51.600;7.310;2022-12-07T09:34:38;12.52;;;7.10;;
14052;SDS011;7101;51.600;7.310;2022-12-07T09:37:05;12.25;;;7.60;;
14052;SDS011;7101;51.600;7.310;2022-12-07T09:39:33;14.18;;;7.50;;
14052;SDS011;7101;51.600;7.310;2022-12-07T09:42:05;13.40;;;6.43;;
14052;SDS011;7101;51.600;7.310;2022-12-07T09:44:33;12.55;;;6.65;;
14052;SDS011;7101;51.600;7.310;2022-12-07T09:47:01;13.43;;;6.75;;
14052;SDS011;7101;51.600;7.310;2022-12-07T09:49:29;16.65;;;7.05;;
14052;SDS011;7101;51.600;7.310;2022-12-07T09:52:00;17.95;;;7.40;;
14052;SDS011;7101;51.600;7.310;2022-12-07T09:54:31;13.02;;;7.38;;
14052;SDS011;7101;51.600;7.310;2022-12-07T09:57:02;15.77;;;7.65;;
14052;SDS011;7101;51.600;7.310;2022-12-07T09:59:34;16.38;;;8.25;;
14052;SDS011;7101;51.600;7.310;2022-12-07T10:02:19;12.88;;;7.85;;
14052;SDS011;7101;51.600;7.310;2022-12-07T10:04:50;16.27;;;7.63;;
14052;SDS011;7101;51.600;7.310;2022-12-07T10:07:17;12.93;;;7.50;;
14052;SDS011;7101;51.600;7.310;2022-12-07T10:09:45;11.40;;;6.60;;
14052;SDS011;7101;51.600;7.310;2022-12-07T10:12:13;13.38;;;6.35;;
14052;SDS011;7101;51.600;7.310;2022-12-07T10:14:48;13.55;;;5.32;;
14052;SDS011;7101;51.600;7.310;2022-12-07T10:17:28;14.57;;;5.55;;
14052;SDS011;7101;51.600;7.310;2022-12-07T10:20:08;11.98;;;4.90;;
14052;SDS011;7101;51.600;7.310;2022-12-07T10:22:54;10.15;;;4.32;;
14052;SDS011;7101;51.600;7.310;2022-12-07T10:25:26;7.78;;;4.50;;
14052;SDS011;7101;51.600;7.310;2022-12-07T10:28:00;12.40;;;4.35;;
14052;SDS011;7101;51.600;7.310;2022-12-07T10:30:30;8.25;;;3.72;;
14052;SDS011;7101;51.600;7.310;2022-12-07T10:32:58;7.68;;;3.40;;
14052;SDS011;7101;51.600;7.310;2022-12-07T10:35:25;7.05;;;3.28;;
14052;SDS011;7101;51.600;7.310;2022-12-07T10:37:54;9.70;;;3.03;;
14052;SDS011;7101;51.600;7.310;2022-12-07T10:40:25;15.02;;;3.78;;
14052;SDS011;7101;51.600;7.310;2022-12-07T10:43:05;8.43;;;3.40;;
14052;SDS011;7101;51.600;7.310;2022-12-07T10:45:43;6.65;;;3.20;;
14052;SDS011;7101;51.600;7.310;2022-12-07T10:48:33;7.68;;;3.20;;
14052;SDS011;7101;51.600;7.310;2022-12-07T10:51:09;7.13;;;3.38;;
14052;SDS011;7101;51.600;7.310;2022-12-07T10:53:47;7.60;;;2.90;;
14052;SDS011;7101;51.600;7.310;2022-12-07T10:56:29;7.72;;;3.33;;
14052;SDS011;7101;51.600;7.310;2022-12-07T11:02:36;7.13;;;3.35;;
14052;SDS011;7101;51.600;7.310;2022-12-07T11:05:18;7.78;;;3.20;;
14052;SDS011;7101;51.600;7.310;2022-12-07T11:07:54;6.22;;;3.20;;
14052;SDS011;7101;51.600;7.310;2022-12-07T11:10:29;11.23;;;4.35;;
14052;SDS011;7101;51.600;7.310;2022-12-07T11:13:11;16.70;;;6.90;;
14052;SDS011;7101;51.600;7.310;2022-12-07T11:16:07;32.90;;;11.00;;
14052;SDS011;7101;51.600;7.310;2022-12-07T11:18:50;14.10;;;4.57;;
14052;SDS011;7101;51.600;7.310;2022-12-07T11:21:26;7.97;;;3.22;;
14052;SDS011;7101;51.600;7.310;2022-12-07T11:24:01;11.27;;;5.18;;
14052;SDS011;7101;51.600;7.310;2022-12-07T11:26:34;17.23;;;7.57;;
14052;SDS011;7101;51.600;7.310;2022-12-07T11:29:27;12.10;;;4.93;;
14052;SDS011;7101;51.600;7.310;2022-12-07T11:32:09;8.50;;;4.07;;
14052;SDS011;7101;51.600;7.310;2022-12-07T11:34:49;7.18;;;2.95;;
14052;SDS011;7101;51.600;7.310;2022-12-07T11:37:25;6.93;;;3.05;;
14052;SDS011;7101;51.600;7.310;2022-12-07T11:39:59;10.68;;;3.22;;
14052;SDS011;7101;51.600;7.310;2022-12-07T11:42:29;7.60;;;3.33;;
14052;SDS011;7101;51.600;7.310;2022-12-07T11:45:04;10.60;;;3.15;;
14052;SDS011;7101;51.600;7.310;2022-12-07T11:47:40;6.32;;;3.10;;
14052;SDS011;7101;51.600;7.310;2022-12-07T11:50:26;12.20;;;4.78;;
14052;SDS011;7101;51.600;7.310;2022-12-07T11:52:57;12.60;;;5.03;;
14052;SDS011;7101;51.600;7.310;2022-12-07T11:55:29;11.35;;;4.38;;
14052;SDS011;7101;51.600;7.310;2022-12-07T11:58:18;5.07;;;2.65;;
14052;SDS011;7101;51.600;7.310;2022-12-07T12:01:00;8.35;;;2.58;;
14052;SDS011;7101;51.600;7.310;2022-12-07T12:03:40;7.35;;;2.80;;
14052;SDS011;7101;51.600;7.310;2022-12-07T12:06:11;8.88;;;2.47;;
14052;SDS011;7101;51.600;7.310;2022-12-07T12:08:39;11.05;;;2.65;;
14052;SDS011;7101;51.600;7.310;2022-12-07T12:11:14;8.18;;;2.80;;
14052;SDS011;7101;51.600;7.310;2022-12-07T12:14:14;8.20;;;2.47;;
14052;SDS011;7101;51.600;7.310;2022-12-07T12:20:06;11.70;;;2.53;;
14052;SDS011;7101;51.600;7.310;2022-12-07T12:22:47;5.13;;;2.75;;
14052;SDS011;7101;51.600;7.310;2022-12-07T12:25:20;6.53;;;2.50;;
14052;SDS011;7101;51.600;7.310;2022-12-07T12:27:49;6.03;;;2.35;;
14052;SDS011;7101;51.600;7.310;2022-12-07T12:30:26;8.73;;;2.58;;
14052;SDS011;7101;51.600;7.310;2022-12-07T12:33:01;6.55;;;2.58;;
14052;SDS011;7101;51.600;7.310;2022-12-07T12:35:31;14.43;;;7.60;;
14052;SDS011;7101;51.600;7.310;2022-12-07T12:40:59;32.55;;;20.13;;
14052;SDS011;7101;51.600;7.310;2022-12-07T12:43:39;27.77;;;19.95;;
14052;SDS011;7101;51.600;7.310;2022-12-07T12:52:01;15.80;;;8.13;;
14052;SDS011;7101;51.600;7.310;2022-12-07T12:55:12;7.10;;;2.70;;
14052;SDS011;7101;51.600;7.310;2022-12-07T12:57:44;9.40;;;2.45;;
14052;SDS011;7101;51.600;7.310;2022-12-07T13:00:15;7.20;;;2.60;;
14052;SDS011;7101;51.600;7.310;2022-12-07T13:02:47;9.60;;;2.85;;
14052;SDS011;7101;51.600;7.310;2022-12-07T13:05:16;5.75;;;2.65;;
14052;SDS011;7101;51.600;7.310;2022-12-07T13:07:53;8.38;;;2.42;;
14052;SDS011;7101;51.600;7.310;2022-12-07T13:10:44;8.13;;;2.65;;
14052;SDS011;7101;51.600;7.310;2022-12-07T13:25:38;8.85;;;3.13;;
14052;SDS011;7101;51.600;7.310;2022-12-07T13:28:15;8.57;;;2.97;;
14052;SDS011;7101;51.600;7.310;2022-12-07T13:30:53;9.05;;;3.17;;
14052;SDS011;7101;51.600;7.310;2022-12-07T13:33:41;9.60;;;2.50;;
14052;SDS011;7101;51.600;7.310;2022-12-07T13:36:14;11.73;;;3.30;;
14052;SDS011;7101;51.600;7.310;2022-12-07T13:38:49;8.23;;;2.67;;
14052;SDS011;7101;51.600;7.310;2022-12-07T13:41:20;7.55;;;2.88;;
14052;SDS011;7101;51.600;7.310;2022-12-07T13:43:52;12.23;;;3.80;;
14052;SDS011;7101;51.600;7.310;2022-12-07T13:46:26;74.50;;;48.17;;
14052;SDS011;7101;51.600;7.310;2022-12-07T13:49:02;44.35;;;30.08;;
14052;SDS011;7101;51.600;7.310;2022-12-07T13:51:41;12.32;;;3.78;;
14052;SDS011;7101;51.600;7.310;2022-12-07T13:54:10;10.10;;;2.78;;
14052;SDS011;7101;51.600;7.310;2022-12-07T13:56:39;11.20;;;2.83;;
14052;SDS011;7101;51.600;7.310;2022-12-07T13:59:10;8.13;;;2.28;;
14052;SDS011;7101;51.600;7.310;2022-12-07T14:01:40;7.78;;;2.55;;
14052;SDS011;7101;51.600;7.310;2022-12-07T14:07:01;4.68;;;2.00;;
14052;SDS011;7101;51.600;7.310;2022-12-07T14:09:53;6.50;;;1.98;;
14052;SDS011;7101;51.600;7.310;2022-12-07T14:12:23;7.85;;;1.90;;
14052;SDS011;7101;51.600;7.310;2022-12-07T14:14:52;7.95;;;2.22;;
14052;SDS011;7101;51.600;7.310;2022-12-07T14:17:20;9.68;;;2.50;;
14052;SDS011;7101;51.600;7.310;2022-12-07T14:19:50;7.03;;;2.50;;
14052;SDS011;7101;51.600;7.310;2022-12-07T14:22:25;10.35;;;7.05;;
14052;SDS011;7101;51.600;7.310;2022-12-07T14:27:58;9.32;;;4.38;;
14052;SDS011;7101;51.600;7.310;2022-12-07T14:30:27;12.18;;;4.30;;
14052;SDS011;7101;51.600;7.310;2022-12-07T14:32:57;15.93;;;4.68;;
14052;SDS011;7101;51.600;7.310;2022-12-07T14:35:26;9.95;;;4.10;;
14052;SDS011;7101;51.600;7.310;2022-12-07T14:37:55;10.98;;;4.72;;
14052;SDS011;7101;51.600;7.310;2022-12-07T14:40:23;9.23;;;4.07;;
14052;SDS011;7101;51.600;7.310;2022-12-07T14:42:52;9.52;;;5.03;;
14052;SDS011;7101;51.600;7.310;2022-12-07T14:45:24;9.60;;;3.85;;
14052;SDS011;7101;51.600;7.310;2022-12-07T14:47:51;8.18;;;3.65;;
14052;SDS011;7101;51.600;7.310;2022-12-07T14:50:19;7.20;;;3.88;;
14052;SDS011;7101;51.600;7.310;2022-12-07T14:52:48;13.38;;;4.18;;
14052;SDS011;7101;51.600;7.310;2022-12-07T14:55:20;6.95;;;3.67;;
14052;SDS011;7101;51.600;7.310;2022-12-07T14:57:49;8.40;;;3.80;;
14052;SDS011;7101;51.600;7.310;2022-12-07T15:00:17;8.02;;;3.72;;
14052;SDS011;7101;51.600;7.310;2022-12-07T15:02:49;10.45;;;5.18;;
14052;SDS011;7101;51.600;7.310;2022-12-07T15:05:18;10.98;;;4.60;;
14052;SDS011;7101;51.600;7.310;2022-12-07T15:07:45;10.88;;;3.42;;
14052;SDS011;7101;51.600;7.310;2022-12-07T15:10:17;8.80;;;3.33;;
14052;SDS011;7101;51.600;7.310;2022-12-07T15:12:47;10.70;;;3.35;;
14052;SDS011;7101;51.600;7.310;2022-12-07T15:15:14;5.32;;;3.47;;
14052;SDS011;7101;51.600;7.310;2022-12-07T15:17:42;5.95;;;3.38;;
14052;SDS011;7101;51.600;7.310;2022-12-07T15:20:11;7.03;;;3.15;;
14052;SDS011;7101;51.600;7.310;2022-12-07T15:22:43;11.90;;;3.63;;
14052;SDS011;7101;51.600;7.310;2022-12-07T15:25:12;7.95;;;3.83;;
14052;SDS011;7101;51.600;7.310;2022-12-07T15:27:40;11.38;;;4.00;;
14052;SDS011;7101;51.600;7.310;2022-12-07T15:30:07;6.90;;;3.50;;
14052;SDS011;7101;51.600;7.310;2022-12-07T15:32:35;12.07;;;3.88;;
14052;SDS011;7101;51.600;7.310;2022-12-07T15:35:02;10.63;;;3.65;;
14052;SDS011;7101;51.600;7.310;2022-12-07T15:37:31;8.15;;;4.07;;
14052;SDS011;7101;51.600;7.310;2022-12-07T15:39:58;8.00;;;4.00;;